sensor_id;sensor_type;location;lat;lon;timestamp;pressure;altitude;pressure_sealevel;temperature;humidity
46223;BME280;31943;51.410;7.564;2023-05-21T00:00:46;100433.97;;;13.04;63.58
46223;BME280;31943;51.410;7.564;2023-05-21T00:03:12;100435.72;;;13.03;64.05
46223;BME280;31943;51.410;7.564;2023-05-21T00:05:38;100429.56;;;13.03;63.96
46223;BME280;31943;51.410;7.564;2023-05-21T00:08:04;100425.22;;;13.02;63.71
46223;BME280;31943;51.410;7.564;2023-05-21T00:10:30;100423.47;;;13.01;64.17
46223;BME280;31943;51.410;7.564;2023-05-21T00:12:56;100426.09;;;13.01;63.98
46223;BME280;31943;51.410;7.564;2023-05-21T00:15:21;100425.19;;;12.97;63.99
46223;BME280;31943;51.410;7.564;2023-05-21T00:17:48;100418.22;;;12.96;64.06
46223;BME280;31943;51.410;7.564;2023-05-21T00:20:14;100411.22;;;12.92;64.16
46223;BME280;31943;51.410;7.564;2023-05-21T00:22:41;100411.19;;;12.89;64.15
46223;BME280;31943;51.410;7.564;2023-05-21T00:25:07;100405.09;;;12.87;64.46
46223;BME280;31943;51.410;7.564;2023-05-21T00:27:33;100400.72;;;12.86;64.37
46223;BME280;31943;51.410;7.564;2023-05-21T00:29:59;100397.22;;;12.82;64.36
46223;BME280;31943;51.410;7.564;2023-05-21T00:32:25;100397.22;;;12.81;64.31
46223;BME280;31943;51.410;7.564;2023-05-21T00:34:53;100399.84;;;12.81;64.70
46223;BME280;31943;51.410;7.564;2023-05-21T00:37:18;100386.72;;;12.78;64.46
46223;BME280;31943;51.410;7.564;2023-05-21T00:39:44;100388.47;;;12.79;64.59
46223;BME280;31943;51.410;7.564;2023-05-21T00:42:09;100391.09;;;12.77;64.38
46223;BME280;31943;51.410;7.564;2023-05-21T00:44:35;100389.34;;;12.75;64.74
46223;BME280;31943;51.410;7.564;2023-05-21T00:47:01;100384.97;;;12.72;64.58
46223;BME280;31943;51.410;7.564;2023-05-21T00:49:27;100387.59;;;12.72;64.64
46223;BME280;31943;51.410;7.564;2023-05-21T00:51:54;100382.34;;;12.71;64.19
46223;BME280;31943;51.410;7.564;2023-05-21T00:54:20;100384.97;;;12.69;64.58
46223;BME280;31943;51.410;7.564;2023-05-21T00:56:46;100386.69;;;12.67;64.38
46223;BME280;31943;51.410;7.564;2023-05-21T00:59:13;100382.34;;;12.64;64.59
46223;BME280;31943;51.410;7.564;2023-05-21T01:01:41;100383.19;;;12.63;64.56
46223;BME280;31943;51.410;7.564;2023-05-21T01:04:07;100377.97;;;12.60;64.78
46223;BME280;31943;51.410;7.564;2023-05-21T01:06:33;100373.56;;;12.59;64.60
46223;BME280;31943;51.410;7.564;2023-05-21T01:09:00;100371.81;;;12.58;64.78
46223;BME280;31943;51.410;7.564;2023-05-21T01:11:36;100368.31;;;12.56;64.45
46223;BME280;31943;51.410;7.564;2023-05-21T01:14:02;100370.94;;;12.56;64.53
46223;BME280;31943;51.410;7.564;2023-05-21T01:16:29;100370.94;;;12.55;64.70
46223;BME280;31943;51.410;7.564;2023-05-21T01:18:55;100363.09;;;12.53;64.48
46223;BME280;31943;51.410;7.564;2023-05-21T01:21:23;100368.31;;;12.53;64.68
46223;BME280;31943;51.410;7.564;2023-05-21T01:23:51;100366.56;;;12.54;64.75
46223;BME280;31943;51.410;7.564;2023-05-21T01:26:17;100370.06;;;12.53;64.85
46223;BME280;31943;51.410;7.564;2023-05-21T01:28:42;100363.97;;;12.51;64.77
46223;BME280;31943;51.410;7.564;2023-05-21T01:31:13;100363.06;;;12.50;65.02
46223;BME280;31943;51.410;7.564;2023-05-21T01:33:46;100360.47;;;12.52;64.70
46223;BME280;31943;51.410;7.564;2023-05-21T01:36:19;100358.72;;;12.49;64.74
46223;BME280;31943;51.410;7.564;2023-05-21T01:38:49;100368.31;;;12.49;65.23
46223;BME280;31943;51.410;7.564;2023-05-21T01:41:20;100358.66;;;12.44;64.96
46223;BME280;31943;51.410;7.564;2023-05-21T01:43:47;100356.06;;;12.43;65.17
46223;BME280;31943;51.410;7.564;2023-05-21T01:46:16;100356.06;;;12.43;65.34
46223;BME280;31943;51.410;7.564;2023-05-21T01:48:42;100358.69;;;12.41;65.23
46223;BME280;31943;51.410;7.564;2023-05-21T01:51:08;100348.19;;;12.40;65.16
46223;BME280;31943;51.410;7.564;2023-05-21T01:53:34;100353.44;;;12.40;64.82
46223;BME280;31943;51.410;7.564;2023-05-21T01:56:00;100356.03;;;12.38;64.76
46223;BME280;31943;51.410;7.564;2023-05-21T01:58:27;100349.91;;;12.36;65.02
46223;BME280;31943;51.410;7.564;2023-05-21T02:00:53;100352.53;;;12.33;65.24
46223;BME280;31943;51.410;7.564;2023-05-21T02:03:19;100347.28;;;12.32;65.47
46223;BME280;31943;51.410;7.564;2023-05-21T02:05:44;100342.06;;;12.33;65.46
46223;BME280;31943;51.410;7.564;2023-05-21T02:08:10;100342.06;;;12.33;65.22
46223;BME280;31943;51.410;7.564;2023-05-21T02:10:36;100343.81;;;12.31;65.22
46223;BME280;31943;51.410;7.564;2023-05-21T02:13:01;100349.91;;;12.30;64.87
46223;BME280;31943;51.410;7.564;2023-05-21T02:15:29;100349.00;;;12.28;65.07
46223;BME280;31943;51.410;7.564;2023-05-21T02:17:54;100335.03;;;12.24;64.70
46223;BME280;31943;51.410;7.564;2023-05-21T02:20:20;100344.63;;;12.22;64.90
46223;BME280;31943;51.410;7.564;2023-05-21T02:22:47;100339.38;;;12.21;64.96
46223;BME280;31943;51.410;7.564;2023-05-21T02:25:14;100339.38;;;12.18;64.91
46223;BME280;31943;51.410;7.564;2023-05-21T02:27:40;100338.50;;;12.14;65.25
46223;BME280;31943;51.410;7.564;2023-05-21T02:30:07;100341.97;;;12.15;64.97
46223;BME280;31943;51.410;7.564;2023-05-21T02:32:36;100338.50;;;12.14;65.38
46223;BME280;31943;51.410;7.564;2023-05-21T02:35:03;100343.72;;;12.14;65.19
46223;BME280;31943;51.410;7.564;2023-05-21T02:37:29;100338.47;;;12.13;65.40
46223;BME280;31943;51.410;7.564;2023-05-21T02:39:55;100333.22;;;12.11;65.31
46223;BME280;31943;51.410;7.564;2023-05-21T02:42:21;100337.59;;;12.12;65.51
46223;BME280;31943;51.410;7.564;2023-05-21T02:44:47;100338.47;;;12.10;65.09
46223;BME280;31943;51.410;7.564;2023-05-21T02:47:12;100332.38;;;12.07;65.37
46223;BME280;31943;51.410;7.564;2023-05-21T02:49:39;100340.22;;;12.07;65.68
46223;BME280;31943;51.410;7.564;2023-05-21T02:52:05;100330.59;;;12.05;65.75
46223;BME280;31943;51.410;7.564;2023-05-21T02:54:31;100337.56;;;12.04;65.48
46223;BME280;31943;51.410;7.564;2023-05-21T02:56:56;100326.25;;;12.04;65.30
46223;BME280;31943;51.410;7.564;2023-05-21T02:59:22;100337.53;;;12.01;65.15
46223;BME280;31943;51.410;7.564;2023-05-21T03:01:48;100341.91;;;12.01;65.67
46223;BME280;31943;51.410;7.564;2023-05-21T03:04:13;100332.31;;;11.98;65.52
46223;BME280;31943;51.410;7.564;2023-05-21T03:06:41;100329.69;;;11.98;65.61
46223;BME280;31943;51.410;7.564;2023-05-21T03:09:06;100320.06;;;11.97;65.70
46223;BME280;31943;51.410;7.564;2023-05-21T03:11:32;100324.47;;;11.98;65.72
46223;BME280;31943;51.410;7.564;2023-05-21T03:13:58;100327.09;;;12.00;65.75
46223;BME280;31943;51.410;7.564;2023-05-21T03:16:23;100327.94;;;11.99;65.66
46223;BME280;31943;51.410;7.564;2023-05-21T03:18:49;100325.34;;;12.00;65.79
46223;BME280;31943;51.410;7.564;2023-05-21T03:21:15;100323.59;;;11.98;65.83
46223;BME280;31943;51.410;7.564;2023-05-21T03:23:43;100325.31;;;11.99;65.88
46223;BME280;31943;51.410;7.564;2023-05-21T03:26:08;100326.19;;;11.99;65.71
46223;BME280;31943;51.410;7.564;2023-05-21T03:28:34;100320.97;;;11.99;65.75
46223;BME280;31943;51.410;7.564;2023-05-21T03:31:00;100320.97;;;11.99;65.75
46223;BME280;31943;51.410;7.564;2023-05-21T03:33:26;100326.19;;;11.99;65.80
46223;BME280;31943;51.410;7.564;2023-05-21T03:35:52;100319.22;;;11.98;65.86
46223;BME280;31943;51.410;7.564;2023-05-21T03:38:17;100324.44;;;11.97;66.06
46223;BME280;31943;51.410;7.564;2023-05-21T03:40:45;100320.06;;;11.97;65.94
46223;BME280;31943;51.410;7.564;2023-05-21T03:43:10;100328.81;;;11.98;66.38
46223;BME280;31943;51.410;7.564;2023-05-21T03:45:36;100317.50;;;12.00;66.39
46223;BME280;31943;51.410;7.564;2023-05-21T03:48:02;100316.63;;;12.00;66.25
46223;BME280;31943;51.410;7.564;2023-05-21T03:50:28;100319.22;;;12.01;66.12
46223;BME280;31943;51.410;7.564;2023-05-21T03:52:54;100320.09;;;12.00;66.56
46223;BME280;31943;51.410;7.564;2023-05-21T03:55:19;100314.00;;;12.01;66.09
46223;BME280;31943;51.410;7.564;2023-05-21T03:57:47;100325.34;;;12.02;66.33
46223;BME280;31943;51.410;7.564;2023-05-21T04:00:13;100324.47;;;12.00;66.55
46223;BME280;31943;51.410;7.564;2023-05-21T04:02:38;100327.09;;;12.00;66.62
46223;BME280;31943;51.410;7.564;2023-05-21T04:05:05;100322.72;;;12.00;66.64
46223;BME280;31943;51.410;7.564;2023-05-21T04:07:31;100336.69;;;12.02;66.54
46223;BME280;31943;51.410;7.564;2023-05-21T04:09:57;100323.59;;;12.02;66.58
46223;BME280;31943;51.410;7.564;2023-05-21T04:12:23;100321.00;;;12.04;66.70
46223;BME280;31943;51.410;7.564;2023-05-21T04:14:50;100318.38;;;12.04;66.35
46223;BME280;31943;51.410;7.564;2023-05-21T04:17:15;100327.13;;;12.06;66.48
46223;BME280;31943;51.410;7.564;2023-05-21T04:19:41;100322.75;;;12.06;66.76
46223;BME280;31943;51.410;7.564;2023-05-21T04:22:08;100328.88;;;12.09;66.75
46223;BME280;31943;51.410;7.564;2023-05-21T04:24:34;100334.13;;;12.12;66.77
46223;BME280;31943;51.410;7.564;2023-05-21T04:26:59;100333.25;;;12.13;67.02
46223;BME280;31943;51.410;7.564;2023-05-21T04:29:25;100339.34;;;12.15;67.23
46223;BME280;31943;51.410;7.564;2023-05-21T04:31:52;100335.00;;;12.17;67.05
46223;BME280;31943;51.410;7.564;2023-05-21T04:34:18;100336.78;;;12.19;66.94
46223;BME280;31943;51.410;7.564;2023-05-21T04:36:44;100335.03;;;12.21;67.19
46223;BME280;31943;51.410;7.564;2023-05-21T04:39:10;100337.63;;;12.23;66.96
46223;BME280;31943;51.410;7.564;2023-05-21T04:41:35;100337.69;;;12.27;66.78
46223;BME280;31943;51.410;7.564;2023-05-21T04:44:01;100336.81;;;12.32;67.02
46223;BME280;31943;51.410;7.564;2023-05-21T04:46:27;100336.81;;;12.35;67.18
46223;BME280;31943;51.410;7.564;2023-05-21T04:48:54;100340.34;;;12.38;66.98
46223;BME280;31943;51.410;7.564;2023-05-21T04:51:20;100330.75;;;12.42;66.92
46223;BME280;31943;51.410;7.564;2023-05-21T04:53:46;100326.41;;;12.44;67.19
46223;BME280;31943;51.410;7.564;2023-05-21T04:56:11;100335.13;;;12.44;67.02
46223;BME280;31943;51.410;7.564;2023-05-21T04:58:37;100342.13;;;12.49;67.33
46223;BME280;31943;51.410;7.564;2023-05-21T05:01:03;100331.66;;;12.50;67.60
46223;BME280;31943;51.410;7.564;2023-05-21T05:03:28;100320.31;;;12.54;67.38
46223;BME280;31943;51.410;7.564;2023-05-21T05:05:55;100323.84;;;12.61;67.69
46223;BME280;31943;51.410;7.564;2023-05-21T05:08:21;100322.09;;;12.66;67.57
46223;BME280;31943;51.410;7.564;2023-05-21T05:10:46;100327.38;;;12.71;68.15
46223;BME280;31943;51.410;7.564;2023-05-21T05:13:12;100329.09;;;12.73;67.95
46223;BME280;31943;51.410;7.564;2023-05-21T05:15:38;100328.25;;;12.80;68.05
46223;BME280;31943;51.410;7.564;2023-05-21T05:18:03;100320.41;;;12.86;67.41
46223;BME280;31943;51.410;7.564;2023-05-21T05:20:29;100328.28;;;12.93;67.54
46223;BME280;31943;51.410;7.564;2023-05-21T05:22:56;100322.19;;;12.98;67.99
46223;BME280;31943;51.410;7.564;2023-05-21T05:25:23;100316.06;;;13.02;68.04
46223;BME280;31943;51.410;7.564;2023-05-21T05:27:49;100317.81;;;13.06;67.78
46223;BME280;31943;51.410;7.564;2023-05-21T05:30:15;100309.06;;;13.09;68.39
46223;BME280;31943;51.410;7.564;2023-05-21T05:32:40;100313.47;;;13.13;68.13
46223;BME280;31943;51.410;7.564;2023-05-21T05:35:07;100316.94;;;13.12;68.30
46223;BME280;31943;51.410;7.564;2023-05-21T05:37:32;100323.06;;;13.14;68.17
46223;BME280;31943;51.410;7.564;2023-05-21T05:40:00;100321.31;;;13.16;68.63
46223;BME280;31943;51.410;7.564;2023-05-21T05:42:26;100325.69;;;13.22;68.58
46223;BME280;31943;51.410;7.564;2023-05-21T05:44:51;100320.44;;;13.26;68.13
46223;BME280;31943;51.410;7.564;2023-05-21T05:47:17;100321.34;;;13.30;68.42
46223;BME280;31943;51.410;7.564;2023-05-21T05:49:43;100317.88;;;13.31;68.40
46223;BME280;31943;51.410;7.564;2023-05-21T05:52:08;100314.38;;;13.32;68.24
46223;BME280;31943;51.410;7.564;2023-05-21T05:54:34;100317.88;;;13.37;68.44
46223;BME280;31943;51.410;7.564;2023-05-21T05:57:01;100320.47;;;13.42;68.43
46223;BME280;31943;51.410;7.564;2023-05-21T05:59:27;100317.88;;;13.45;68.42
46223;BME280;31943;51.410;7.564;2023-05-21T06:01:52;100316.97;;;13.48;68.01
46223;BME280;31943;51.410;7.564;2023-05-21T06:04:18;100322.22;;;13.54;67.97
46223;BME280;31943;51.410;7.564;2023-05-21T06:06:43;100319.59;;;13.61;67.83
46223;BME280;31943;51.410;7.564;2023-05-21T06:09:09;100318.69;;;13.65;67.67
46223;BME280;31943;51.410;7.564;2023-05-21T06:11:35;100316.94;;;13.68;67.97
46223;BME280;31943;51.410;7.564;2023-05-21T06:14:01;100321.34;;;13.70;67.93
46223;BME280;31943;51.410;7.564;2023-05-21T06:16:27;100318.72;;;13.70;67.87
46223;BME280;31943;51.410;7.564;2023-05-21T06:18:53;100319.56;;;13.74;68.08
46223;BME280;31943;51.410;7.564;2023-05-21T06:21:20;100316.06;;;13.79;67.89
46223;BME280;31943;51.410;7.564;2023-05-21T06:23:45;100316.91;;;13.91;67.91
46223;BME280;31943;51.410;7.564;2023-05-21T06:26:11;100315.16;;;13.96;68.10
46223;BME280;31943;51.410;7.564;2023-05-21T06:28:37;100310.75;;;14.06;68.09
46223;BME280;31943;51.410;7.564;2023-05-21T06:31:04;100315.97;;;14.12;67.73
46223;BME280;31943;51.410;7.564;2023-05-21T06:33:29;100317.72;;;14.11;67.85
46223;BME280;31943;51.410;7.564;2023-05-21T06:35:55;100316.84;;;14.14;67.85
46223;BME280;31943;51.410;7.564;2023-05-21T06:38:21;100309.81;;;14.19;67.82
46223;BME280;31943;51.410;7.564;2023-05-21T06:40:47;100315.94;;;14.27;67.52
46223;BME280;31943;51.410;7.564;2023-05-21T06:43:12;100322.88;;;14.33;68.04
46223;BME280;31943;51.410;7.564;2023-05-21T06:45:38;100315.91;;;14.33;67.75
46223;BME280;31943;51.410;7.564;2023-05-21T06:48:05;100311.47;;;14.43;67.57
46223;BME280;31943;51.410;7.564;2023-05-21T06:50:31;100319.31;;;14.58;67.40
46223;BME280;31943;51.410;7.564;2023-05-21T06:52:57;100314.00;;;14.69;67.37
46223;BME280;31943;51.410;7.564;2023-05-21T06:55:22;100306.06;;;14.77;66.90
46223;BME280;31943;51.410;7.564;2023-05-21T06:57:49;100297.28;;;14.84;67.29
46223;BME280;31943;51.410;7.564;2023-05-21T07:00:15;100298.97;;;14.91;66.78
46223;BME280;31943;51.410;7.564;2023-05-21T07:02:40;100291.09;;;14.90;66.96
46223;BME280;31943;51.410;7.564;2023-05-21T07:05:08;100294.59;;;14.92;66.81
46223;BME280;31943;51.410;7.564;2023-05-21T07:07:34;100296.34;;;14.91;66.92
46223;BME280;31943;51.410;7.564;2023-05-21T07:09:59;100297.19;;;14.96;67.02
46223;BME280;31943;51.410;7.564;2023-05-21T07:12:25;100292.75;;;15.03;66.52
46223;BME280;31943;51.410;7.564;2023-05-21T07:14:51;100294.47;;;15.07;66.42
46223;BME280;31943;51.410;7.564;2023-05-21T07:17:17;100293.59;;;15.11;66.51
46223;BME280;31943;51.410;7.564;2023-05-21T07:19:43;100288.28;;;15.16;66.22
46223;BME280;31943;51.410;7.564;2023-05-21T07:22:10;100290.78;;;15.30;66.46
46223;BME280;31943;51.410;7.564;2023-05-21T07:24:36;100286.38;;;15.30;66.28
46223;BME280;31943;51.410;7.564;2023-05-21T07:27:02;100288.16;;;15.31;66.29
46223;BME280;31943;51.410;7.564;2023-05-21T07:29:28;100300.38;;;15.34;66.18
46223;BME280;31943;51.410;7.564;2023-05-21T07:31:53;100300.44;;;15.28;66.00
46223;BME280;31943;51.410;7.564;2023-05-21T07:34:19;100305.75;;;15.21;66.29
46223;BME280;31943;51.410;7.564;2023-05-21T07:36:44;100297.88;;;15.21;66.64
46223;BME280;31943;51.410;7.564;2023-05-21T07:39:12;100296.94;;;15.27;66.39
46223;BME280;31943;51.410;7.564;2023-05-21T07:41:37;100293.38;;;15.34;66.30
46223;BME280;31943;51.410;7.564;2023-05-21T07:44:03;100296.88;;;15.35;66.27
46223;BME280;31943;51.410;7.564;2023-05-21T07:46:30;100303.81;;;15.40;66.23
46223;BME280;31943;51.410;7.564;2023-05-21T07:48:55;100306.44;;;15.43;66.04
46223;BME280;31943;51.410;7.564;2023-05-21T07:51:21;100302.91;;;15.46;65.69
46223;BME280;31943;51.410;7.564;2023-05-21T07:53:47;100295.84;;;15.53;65.84
46223;BME280;31943;51.410;7.564;2023-05-21T07:56:14;100302.75;;;15.65;65.48
46223;BME280;31943;51.410;7.564;2023-05-21T07:58:40;100305.31;;;15.71;65.29
46223;BME280;31943;51.410;7.564;2023-05-21T08:01:05;100308.84;;;15.68;65.13
46223;BME280;31943;51.410;7.564;2023-05-21T08:03:31;100315.84;;;15.68;65.30
46223;BME280;31943;51.410;7.564;2023-05-21T08:05:57;100314.94;;;15.72;65.12
46223;BME280;31943;51.410;7.564;2023-05-21T08:08:22;100312.31;;;15.73;65.18
46223;BME280;31943;51.410;7.564;2023-05-21T08:10:49;100312.25;;;15.79;65.13
46223;BME280;31943;51.410;7.564;2023-05-21T08:13:16;100319.25;;;15.82;64.76
46223;BME280;31943;51.410;7.564;2023-05-21T08:15:42;100317.44;;;15.87;64.92
46223;BME280;31943;51.410;7.564;2023-05-21T08:18:08;100312.91;;;16.01;64.60
46223;BME280;31943;51.410;7.564;2023-05-21T08:20:33;100314.47;;;16.16;64.94
46223;BME280;31943;51.410;7.564;2023-05-21T08:22:59;100316.94;;;16.29;64.41
46223;BME280;31943;51.410;7.564;2023-05-21T08:25:25;100309.72;;;16.46;64.29
46223;BME280;31943;51.410;7.564;2023-05-21T08:27:50;100305.84;;;16.73;63.52
46223;BME280;31943;51.410;7.564;2023-05-21T08:30:18;100307.28;;;16.97;62.71
46223;BME280;31943;51.410;7.564;2023-05-21T08:32:44;100307.94;;;17.12;62.63
46223;BME280;31943;51.410;7.564;2023-05-21T08:35:10;100308.50;;;17.31;61.85
46223;BME280;31943;51.410;7.564;2023-05-21T08:37:35;100310.91;;;17.45;61.96
46223;BME280;31943;51.410;7.564;2023-05-21T08:40:01;100308.78;;;17.65;61.00
46223;BME280;31943;51.410;7.564;2023-05-21T08:42:33;100308.69;;;17.70;60.72
46223;BME280;31943;51.410;7.564;2023-05-21T08:45:04;100322.78;;;17.69;60.73
46223;BME280;31943;51.410;7.564;2023-05-21T08:47:34;100311.28;;;17.73;60.45
46223;BME280;31943;51.410;7.564;2023-05-21T08:50:02;100302.41;;;17.77;60.70
46223;BME280;31943;51.410;7.564;2023-05-21T08:52:29;100306.56;;;17.92;60.11
46223;BME280;31943;51.410;7.564;2023-05-21T08:54:55;100298.44;;;18.01;59.83
46223;BME280;31943;51.410;7.564;2023-05-21T08:57:21;100305.38;;;18.07;60.35
46223;BME280;31943;51.410;7.564;2023-05-21T08:59:49;100305.09;;;18.21;60.47
46223;BME280;31943;51.410;7.564;2023-05-21T09:02:15;100296.88;;;18.34;59.57
46223;BME280;31943;51.410;7.564;2023-05-21T09:04:43;100298.94;;;18.22;59.44
46223;BME280;31943;51.410;7.564;2023-05-21T09:07:10;100296.34;;;18.18;59.49
46223;BME280;31943;51.410;7.564;2023-05-21T09:09:40;100299.13;;;18.11;59.50
46223;BME280;31943;51.410;7.564;2023-05-21T09:12:07;100299.19;;;18.09;59.65
46223;BME280;31943;51.410;7.564;2023-05-21T09:14:33;100287.84;;;18.04;59.80
46223;BME280;31943;51.410;7.564;2023-05-21T09:17:00;100291.28;;;18.08;59.96
46223;BME280;31943;51.410;7.564;2023-05-21T09:19:25;100288.38;;;18.22;60.21
46223;BME280;31943;51.410;7.564;2023-05-21T09:21:53;100285.31;;;18.40;60.06
46223;BME280;31943;51.410;7.564;2023-05-21T09:24:20;100288.75;;;18.45;59.55
46223;BME280;31943;51.410;7.564;2023-05-21T09:26:46;100289.44;;;18.53;59.75
46223;BME280;31943;51.410;7.564;2023-05-21T09:29:12;100289.41;;;18.55;59.91
46223;BME280;31943;51.410;7.564;2023-05-21T09:31:42;100285.75;;;18.62;60.07
46223;BME280;31943;51.410;7.564;2023-05-21T09:34:08;100281.81;;;18.78;59.63
46223;BME280;31943;51.410;7.564;2023-05-21T09:36:36;100291.25;;;18.92;59.74
46223;BME280;31943;51.410;7.564;2023-05-21T09:39:04;100282.06;;;19.07;59.70
46223;BME280;31943;51.410;7.564;2023-05-21T09:41:34;100283.63;;;19.15;59.04
46223;BME280;31943;51.410;7.564;2023-05-21T09:44:00;100279.88;;;19.24;58.41
46223;BME280;31943;51.410;7.564;2023-05-21T09:46:26;100279.78;;;19.29;58.29
46223;BME280;31943;51.410;7.564;2023-05-21T09:48:53;100274.97;;;19.09;58.47
46223;BME280;31943;51.410;7.564;2023-05-21T09:51:20;100281.19;;;19.06;59.14
46223;BME280;31943;51.410;7.564;2023-05-21T09:53:48;100280.22;;;19.10;59.27
46223;BME280;31943;51.410;7.564;2023-05-21T09:56:16;100273.88;;;19.17;59.11
46223;BME280;31943;51.410;7.564;2023-05-21T09:58:43;100273.66;;;19.27;59.11
46223;BME280;31943;51.410;7.564;2023-05-21T10:01:09;100271.97;;;19.23;58.94
46223;BME280;31943;51.410;7.564;2023-05-21T10:03:38;100271.44;;;19.08;58.93
46223;BME280;31943;51.410;7.564;2023-05-21T10:06:05;100270.78;;;19.00;59.18
46223;BME280;31943;51.410;7.564;2023-05-21T10:08:34;100270.69;;;19.03;59.34
46223;BME280;31943;51.410;7.564;2023-05-21T10:11:01;100263.44;;;19.11;58.86
46223;BME280;31943;51.410;7.564;2023-05-21T10:13:29;100276.44;;;19.21;58.66
46223;BME280;31943;51.410;7.564;2023-05-21T10:16:00;100260.13;;;19.38;59.13
46223;BME280;31943;51.410;7.564;2023-05-21T10:18:26;100262.56;;;19.45;58.66
46223;BME280;31943;51.410;7.564;2023-05-21T10:20:53;100260.75;;;19.47;58.99
46223;BME280;31943;51.410;7.564;2023-05-21T10:23:19;100256.91;;;19.59;59.27
46223;BME280;31943;51.410;7.564;2023-05-21T10:25:46;100250.38;;;19.74;58.90
46223;BME280;31943;51.410;7.564;2023-05-21T10:28:15;100248.34;;;19.84;58.30
46223;BME280;31943;51.410;7.564;2023-05-21T10:30:43;100254.13;;;19.97;58.31
46223;BME280;31943;51.410;7.564;2023-05-21T10:33:10;100246.75;;;20.08;57.82
46223;BME280;31943;51.410;7.564;2023-05-21T10:35:39;100248.19;;;20.20;57.33
46223;BME280;31943;51.410;7.564;2023-05-21T10:38:06;100248.63;;;20.34;56.78
46223;BME280;31943;51.410;7.564;2023-05-21T10:40:31;100246.38;;;20.50;56.12
46223;BME280;31943;51.410;7.564;2023-05-21T10:43:18;100237.47;;;20.52;56.02
46223;BME280;31943;51.410;7.564;2023-05-21T10:46:02;100245.78;;;20.40;56.04
46223;BME280;31943;51.410;7.564;2023-05-21T10:48:49;100242.28;;;20.40;56.18
46223;BME280;31943;51.410;7.564;2023-05-21T10:51:22;100242.91;;;20.48;56.89
46223;BME280;31943;51.410;7.564;2023-05-21T10:56:47;100236.22;;;20.34;56.54
46223;BME280;31943;51.410;7.564;2023-05-21T10:59:27;100247.31;;;20.49;56.40
46223;BME280;31943;51.410;7.564;2023-05-21T11:01:57;100236.25;;;20.64;56.09
46223;BME280;31943;51.410;7.564;2023-05-21T11:04:25;100233.84;;;20.83;56.52
46223;BME280;31943;51.410;7.564;2023-05-21T11:06:51;100235.88;;;21.03;55.72
46223;BME280;31943;51.410;7.564;2023-05-21T11:09:17;100232.13;;;21.09;54.34
46223;BME280;31943;51.410;7.564;2023-05-21T11:11:44;100229.94;;;20.95;54.46
46223;BME280;31943;51.410;7.564;2023-05-21T11:14:31;100225.56;;;20.94;54.50
46223;BME280;31943;51.410;7.564;2023-05-21T11:16:59;100226.09;;;20.77;54.98
46223;BME280;31943;51.410;7.564;2023-05-21T11:19:33;100219.78;;;20.81;54.92
46223;BME280;31943;51.410;7.564;2023-05-21T11:22:07;100222.78;;;20.97;56.02
46223;BME280;31943;51.410;7.564;2023-05-21T11:24:37;100222.31;;;21.11;55.81
46223;BME280;31943;51.410;7.564;2023-05-21T11:27:03;100220.13;;;21.24;55.58
46223;BME280;31943;51.410;7.564;2023-05-21T11:29:42;100214.34;;;21.38;54.95
46223;BME280;31943;51.410;7.564;2023-05-21T11:32:11;100220.84;;;21.54;54.66
46223;BME280;31943;51.410;7.564;2023-05-21T11:34:39;100212.25;;;21.72;55.15
46223;BME280;31943;51.410;7.564;2023-05-21T11:37:24;100206.94;;;21.96;53.59
46223;BME280;31943;51.410;7.564;2023-05-21T11:39:51;100210.22;;;22.03;53.40
46223;BME280;31943;51.410;7.564;2023-05-21T11:42:26;100207.28;;;22.10;53.67
46223;BME280;31943;51.410;7.564;2023-05-21T11:44:52;100207.16;;;22.14;52.42
46223;BME280;31943;51.410;7.564;2023-05-21T11:47:22;100221.59;;;22.06;52.98
46223;BME280;31943;51.410;7.564;2023-05-21T11:49:48;100217.91;;;22.10;53.48
46223;BME280;31943;51.410;7.564;2023-05-21T11:52:13;100208.03;;;22.14;53.15
46223;BME280;31943;51.410;7.564;2023-05-21T11:54:40;100210.63;;;22.16;53.25
46223;BME280;31943;51.410;7.564;2023-05-21T11:57:07;100198.38;;;22.35;53.27
46223;BME280;31943;51.410;7.564;2023-05-21T11:59:34;100202.66;;;22.39;52.66
46223;BME280;31943;51.410;7.564;2023-05-21T12:02:00;100199.56;;;22.50;52.78
46223;BME280;31943;51.410;7.564;2023-05-21T12:04:30;100201.31;;;22.51;51.62
46223;BME280;31943;51.410;7.564;2023-05-21T12:06:56;100204.06;;;22.48;52.18
46223;BME280;31943;51.410;7.564;2023-05-21T12:09:22;100192.53;;;22.49;53.18
46223;BME280;31943;51.410;7.564;2023-05-21T12:11:49;100193.06;;;22.57;52.73
46223;BME280;31943;51.410;7.564;2023-05-21T12:14:15;100194.97;;;22.54;52.52
46223;BME280;31943;51.410;7.564;2023-05-21T12:16:42;100197.47;;;22.80;52.68
46223;BME280;31943;51.410;7.564;2023-05-21T12:19:08;100190.31;;;23.03;52.11
46223;BME280;31943;51.410;7.564;2023-05-21T12:21:35;100188.09;;;23.35;51.41
46223;BME280;31943;51.410;7.564;2023-05-21T12:24:02;100194.00;;;23.41;50.54
46223;BME280;31943;51.410;7.564;2023-05-21T12:26:29;100193.06;;;23.22;51.01
46223;BME280;31943;51.410;7.564;2023-05-21T12:28:55;100191.84;;;23.08;51.28
46223;BME280;31943;51.410;7.564;2023-05-21T12:31:22;100190.25;;;23.04;51.74
46223;BME280;31943;51.410;7.564;2023-05-21T12:33:47;100190.69;;;23.16;52.10
46223;BME280;31943;51.410;7.564;2023-05-21T12:36:20;100189.81;;;23.36;51.49
46223;BME280;31943;51.410;7.564;2023-05-21T12:38:48;100200.63;;;23.52;51.49
46223;BME280;31943;51.410;7.564;2023-05-21T12:41:15;100203.25;;;23.53;50.94
46223;BME280;31943;51.410;7.564;2023-05-21T12:43:41;100200.50;;;23.55;51.18
46223;BME280;31943;51.410;7.564;2023-05-21T12:46:06;100195.72;;;23.63;51.54
46223;BME280;31943;51.410;7.564;2023-05-21T12:48:32;100197.31;;;23.87;50.65
46223;BME280;31943;51.410;7.564;2023-05-21T12:50:58;100199.75;;;24.11;50.02